createdAt,value
2016-05-24T00:00:05.932Z,19.29
2016-05-24T00:01:05.966Z,19.27
2016-05-24T00:02:06.359Z,19.29
2016-05-24T00:03:06.097Z,19.22
2016-05-24T00:04:06.115Z,19.26
2016-05-24T00:05:06.009Z,19.27
2016-05-24T00:06:05.933Z,19.33
2016-05-24T00:07:06.279Z,19.27
2016-05-24T00:08:06.313Z,19.26
2016-05-24T00:09:06.409Z,19.27
2016-05-24T00:10:06.428Z,19.26
2016-05-24T00:11:06.478Z,19.3
2016-05-24T00:12:06.402Z,19.26
2016-05-24T00:13:06.623Z,19.27
2016-05-24T00:14:06.501Z,19.29
2016-05-24T00:15:06.566Z,19.22
2016-05-24T00:16:06.600Z,19.26
2016-05-24T00:17:06.775Z,19.27
2016-05-24T00:18:06.856Z,19.21
2016-05-24T00:19:06.921Z,19.29
2016-05-24T00:20:06.939Z,19.24
2016-05-24T00:21:07.005Z,19.29
2016-05-24T00:22:07.055Z,19.24
2016-05-24T00:23:06.963Z,19.29
2016-05-24T00:24:07.013Z,19.24
2016-05-24T00:25:07.187Z,19.24
2016-05-24T00:26:07.252Z,19.15
2016-05-24T00:27:07.317Z,19.24
2016-05-24T00:28:07.352Z,19.16
2016-05-24T00:29:07.401Z,19.26
2016-05-24T00:30:07.529Z,19.21
2016-05-24T00:31:07.515Z,19.26
2016-05-24T00:32:07.566Z,19.27
2016-05-24T00:33:07.631Z,19.15
2016-05-24T00:34:07.680Z,19.26
2016-05-24T00:35:07.729Z,19.16
2016-05-24T00:36:07.748Z,19.11
2016-05-24T00:37:07.812Z,19.16
2016-05-24T00:38:07.894Z,19.27
2016-05-24T00:39:07.912Z,19.18
2016-05-24T00:40:07.962Z,19.11
2016-05-24T00:41:08.043Z,19.14
2016-05-24T00:42:07.936Z,19.24
2016-05-24T00:43:08.126Z,19.15
2016-05-24T00:44:08.050Z,19.14
2016-05-24T00:45:08.259Z,19.18
2016-05-24T00:46:08.278Z,19.22
2016-05-24T00:47:08.358Z,19.22
2016-05-24T00:48:08.377Z,19.22
2016-05-24T00:49:08.442Z,19.12
2016-05-24T00:50:08.476Z,19.22
2016-05-24T00:51:08.525Z,19.24
2016-05-24T00:52:08.450Z,19.15
2016-05-24T00:53:08.640Z,19.14
2016-05-24T00:54:08.518Z,19.14
2016-05-24T00:55:08.771Z,19.21
2016-05-24T00:56:08.664Z,19.14
2016-05-24T00:57:08.838Z,19.18
2016-05-24T00:58:08.919Z,19.22
2016-05-24T00:59:08.984Z,19.18
2016-05-24T01:00:09.013Z,19.14
2016-05-24T01:01:09.107Z,19.15
2016-05-24T01:02:08.841Z,19.15
2016-05-24T01:03:09.264Z,19.14
2016-05-24T01:04:09.356Z,19.22
2016-05-24T01:05:09.396Z,19.19
2016-05-24T01:06:09.471Z,19.14
2016-05-24T01:07:09.546Z,19.12
2016-05-24T01:08:09.575Z,19.16
2016-05-24T01:09:09.635Z,19.11
2016-05-24T01:10:09.723Z,19.24
2016-05-24T01:11:09.604Z,19.14
2016-05-24T01:12:09.643Z,19.22
2016-05-24T01:13:09.883Z,19.11
2016-05-24T01:14:09.796Z,19.14
2016-05-24T01:15:10.005Z,19.08
2016-05-24T01:16:10.040Z,19.14
2016-05-24T01:17:10.091Z,19.09
2016-05-24T01:18:10.157Z,19.11
2016-05-24T01:19:10.176Z,19.04
2016-05-24T01:20:10.086Z,19.16
2016-05-24T01:21:10.309Z,19.09
2016-05-24T01:22:10.342Z,19.08
2016-05-24T01:23:10.221Z,19.08
2016-05-24T01:24:10.457Z,19.11
2016-05-24T01:25:10.493Z,19.14
2016-05-24T01:26:10.573Z,19.15
2016-05-24T01:27:10.592Z,19.09
2016-05-24T01:28:10.641Z,19.12
2016-05-24T01:29:10.723Z,19.09
2016-05-24T01:30:10.882Z,19.11
2016-05-24T01:31:10.792Z,19.09
2016-05-24T01:32:10.717Z,19.11
2016-05-24T01:33:10.750Z,19.08
2016-05-24T01:34:10.939Z,19.08
2016-05-24T01:35:11.036Z,19.09
2016-05-24T01:36:11.085Z,19.08
2016-05-24T01:37:11.105Z,19.11
2016-05-24T01:38:11.186Z,19.07
2016-05-24T01:39:11.219Z,19.11
2016-05-24T01:40:11.285Z,19.04
2016-05-24T01:41:11.349Z,19.02
2016-05-24T01:42:11.352Z,19.09
2016-05-24T01:43:11.276Z,19.07
2016-05-24T01:44:11.483Z,19.09
2016-05-24T01:45:11.407Z,19.04
2016-05-24T01:46:11.582Z,19.08
2016-05-24T01:47:11.646Z,19.04
2016-05-24T01:48:11.665Z,19.08
2016-05-24T01:49:11.715Z,19
2016-05-24T01:50:11.640Z,19.02
2016-05-24T01:51:11.829Z,19.07
2016-05-24T01:52:11.879Z,19.07
2016-05-24T01:53:11.944Z,19.08
2016-05-24T01:54:11.822Z,18.96
2016-05-24T01:55:12.012Z,19.07
2016-05-24T01:56:12.109Z,19.04
2016-05-24T01:57:12.142Z,18.99
2016-05-24T01:58:12.176Z,19.09
2016-05-24T01:59:12.257Z,19.04
2016-05-24T02:00:12.323Z,19.07
2016-05-24T02:01:12.341Z,19.02
2016-05-24T02:02:12.422Z,19.04
2016-05-24T02:03:12.471Z,19
2016-05-24T02:04:12.489Z,19.04
2016-05-24T02:05:12.569Z,19.11
2016-05-24T02:06:12.589Z,19.02
2016-05-24T02:07:12.670Z,19.07
2016-05-24T02:08:12.719Z,19.04
2016-05-24T02:09:12.737Z,19
2016-05-24T02:10:12.802Z,19.08
2016-05-24T02:11:12.868Z,19.09
2016-05-24T02:12:12.886Z,19.08
2016-05-24T02:13:12.936Z,19.02
2016-05-24T02:14:13.032Z,18.95
2016-05-24T02:15:13.097Z,19.04
2016-05-24T02:16:13.099Z,19.02
2016-05-24T02:17:13.180Z,18.95
2016-05-24T02:18:13.215Z,19.07
2016-05-24T02:19:13.123Z,19.09
2016-05-24T02:20:13.299Z,19.02
2016-05-24T02:21:13.348Z,19
2016-05-24T02:22:13.256Z,18.98
2016-05-24T02:23:13.462Z,19
2016-05-24T02:24:13.356Z,19.04
2016-05-24T02:25:13.577Z,18.99
2016-05-24T02:26:13.626Z,19
2016-05-24T02:27:13.661Z,19.02
2016-05-24T02:28:13.726Z,19.04
2016-05-24T02:29:13.620Z,18.99
2016-05-24T02:30:13.684Z,18.99
2016-05-24T02:31:13.718Z,18.99
2016-05-24T02:32:13.767Z,18.95
2016-05-24T02:33:13.958Z,19.02
2016-05-24T02:34:14.022Z,18.99
2016-05-24T02:35:14.073Z,19
2016-05-24T02:36:14.138Z,18.9
2016-05-24T02:37:14.172Z,19.02
2016-05-24T02:38:14.221Z,18.95
2016-05-24T02:39:14.302Z,18.93
2016-05-24T02:40:14.336Z,18.96
2016-05-24T02:41:14.386Z,18.89
2016-05-24T02:42:14.436Z,18.92
2016-05-24T02:43:14.469Z,18.9
2016-05-24T02:44:14.534Z,18.9
2016-05-24T02:45:15.349Z,18.88
2016-05-24T02:46:14.758Z,18.93
2016-05-24T02:47:14.543Z,18.89
2016-05-24T02:48:14.827Z,18.9
2016-05-24T02:49:14.641Z,18.9
2016-05-24T02:50:14.910Z,18.88
2016-05-24T02:51:14.850Z,18.86
2016-05-24T02:52:14.946Z,18.86
2016-05-24T02:53:15.059Z,18.9
2016-05-24T02:54:14.905Z,18.9
2016-05-24T02:55:15.157Z,18.89
2016-05-24T02:56:15.004Z,18.84
2016-05-24T02:57:15.195Z,18.83
2016-05-24T02:58:15.229Z,18.84
2016-05-24T02:59:15.309Z,18.84
2016-05-24T03:00:15.640Z,18.8
2016-05-24T03:01:15.408Z,18.89
2016-05-24T03:02:15.286Z,18.89
2016-05-24T03:03:15.351Z,18.93
2016-05-24T03:04:15.557Z,18.9
2016-05-24T03:05:15.466Z,18.92
2016-05-24T03:06:15.656Z,18.83
2016-05-24T03:07:15.722Z,18.93
2016-05-24T03:08:15.755Z,18.86
2016-05-24T03:09:15.805Z,18.8
2016-05-24T03:10:15.870Z,18.84
2016-05-24T03:11:15.919Z,18.8
2016-05-24T03:12:15.797Z,18.8
2016-05-24T03:13:15.862Z,18.83
2016-05-24T03:14:16.083Z,18.83
2016-05-24T03:15:16.086Z,18.86
2016-05-24T03:16:16.011Z,18.83
2016-05-24T03:17:16.061Z,18.83
2016-05-24T03:18:16.282Z,18.83
2016-05-24T03:19:16.175Z,18.86
2016-05-24T03:20:16.381Z,18.8
2016-05-24T03:21:16.431Z,18.83
2016-05-24T03:22:16.465Z,18.89
2016-05-24T03:23:16.515Z,18.81
2016-05-24T03:24:16.579Z,18.84
2016-05-24T03:25:16.629Z,18.83
2016-05-24T03:26:16.679Z,18.77
2016-05-24T03:27:16.759Z,18.83
2016-05-24T03:28:16.778Z,18.83
2016-05-24T03:29:16.843Z,18.89
2016-05-24T03:30:16.751Z,18.83
2016-05-24T03:31:16.942Z,18.81
2016-05-24T03:32:16.992Z,18.81
2016-05-24T03:33:17.041Z,18.77
2016-05-24T03:34:17.091Z,18.77
2016-05-24T03:35:17.140Z,18.8
2016-05-24T03:36:17.205Z,18.81
2016-05-24T03:37:17.240Z,18.78
2016-05-24T03:38:17.305Z,18.8
2016-05-24T03:39:17.339Z,18.75
2016-05-24T03:40:17.403Z,18.8
2016-05-24T03:41:17.453Z,18.78
2016-05-24T03:42:17.502Z,18.74
2016-05-24T03:43:17.553Z,18.81
2016-05-24T03:44:17.446Z,18.78
2016-05-24T03:45:17.699Z,18.83
2016-05-24T03:46:17.544Z,18.8
2016-05-24T03:47:17.751Z,18.75
2016-05-24T03:48:17.815Z,18.86
2016-05-24T03:49:17.694Z,18.81
2016-05-24T03:50:17.727Z,18.84
2016-05-24T03:51:17.808Z,18.81
2016-05-24T03:52:17.842Z,18.74
2016-05-24T03:53:17.908Z,18.8
2016-05-24T03:54:18.113Z,18.81
2016-05-24T03:55:18.163Z,18.81
2016-05-24T03:56:18.212Z,18.78
2016-05-24T03:57:18.262Z,18.78
2016-05-24T03:58:18.343Z,18.78
2016-05-24T03:59:18.345Z,18.7
2016-05-24T04:00:19.489Z,18.71
2016-05-24T04:01:18.460Z,18.71
2016-05-24T04:02:18.525Z,18.78
2016-05-24T04:03:18.575Z,18.74
2016-05-24T04:04:18.609Z,18.74
2016-05-24T04:05:18.675Z,18.73
2016-05-24T04:06:18.755Z,18.7
2016-05-24T04:07:18.601Z,18.78
2016-05-24T04:08:18.822Z,18.84
2016-05-24T04:09:18.872Z,18.83
2016-05-24T04:10:18.938Z,18.77
2016-05-24T04:11:18.972Z,18.71
2016-05-24T04:12:19.036Z,18.78
2016-05-24T04:13:19.071Z,18.73
2016-05-24T04:14:19.010Z,18.73
2016-05-24T04:15:19.138Z,18.7
2016-05-24T04:16:19.361Z,18.74
2016-05-24T04:17:19.300Z,18.78
2016-05-24T04:18:19.335Z,18.77
2016-05-24T04:19:19.399Z,18.77
2016-05-24T04:20:19.432Z,18.75
2016-05-24T04:21:19.499Z,18.78
2016-05-24T04:22:19.532Z,18.8
2016-05-24T04:23:19.598Z,18.75
2016-05-24T04:24:19.663Z,18.71
2016-05-24T04:25:19.665Z,18.75
2016-05-24T04:26:19.731Z,18.74
2016-05-24T04:27:19.779Z,18.7
2016-05-24T04:28:19.846Z,18.71
2016-05-24T04:29:19.879Z,18.74
2016-05-24T04:30:20.617Z,18.81
2016-05-24T04:31:19.994Z,18.75
2016-05-24T04:32:20.043Z,18.75
2016-05-24T04:33:20.093Z,18.81
2016-05-24T04:34:20.159Z,18.71
2016-05-24T04:35:20.208Z,18.75
2016-05-24T04:36:20.242Z,18.74
2016-05-24T04:37:20.306Z,18.73
2016-05-24T04:38:20.341Z,18.75
2016-05-24T04:39:20.406Z,18.75
2016-05-24T04:40:20.472Z,18.73
2016-05-24T04:41:20.364Z,18.74
2016-05-24T04:42:20.539Z,18.78
2016-05-24T04:43:20.604Z,18.8
2016-05-24T04:44:20.655Z,18.73
2016-05-24T04:45:20.547Z,18.74
2016-05-24T04:46:20.613Z,18.74
2016-05-24T04:47:20.802Z,18.78
2016-05-24T04:48:20.852Z,18.68
2016-05-24T04:49:20.760Z,18.68
2016-05-24T04:50:21.046Z,18.75
2016-05-24T04:51:21.033Z,18.63
2016-05-24T04:52:20.894Z,18.75
2016-05-24T04:53:21.099Z,18.73
2016-05-24T04:54:21.181Z,18.66
2016-05-24T04:55:21.215Z,18.7
2016-05-24T04:56:21.265Z,18.65
2016-05-24T04:57:21.330Z,18.7
2016-05-24T04:58:21.395Z,18.74
2016-05-24T04:59:21.272Z,18.73
2016-05-24T05:00:21.698Z,18.71
2016-05-24T05:01:21.543Z,18.71
2016-05-24T05:02:21.578Z,18.66
2016-05-24T05:03:21.627Z,18.59
2016-05-24T05:04:21.676Z,18.66
2016-05-24T05:05:21.726Z,18.75
2016-05-24T05:06:21.791Z,18.73
2016-05-24T05:07:21.825Z,18.59
2016-05-24T05:08:21.890Z,18.6
2016-05-24T05:09:21.925Z,18.7
2016-05-24T05:10:21.974Z,18.68
2016-05-24T05:11:21.883Z,18.71
2016-05-24T05:12:21.933Z,18.73
2016-05-24T05:13:22.139Z,18.63
2016-05-24T05:14:22.188Z,18.68
2016-05-24T05:15:22.753Z,18.71
2016-05-24T05:16:22.115Z,18.62
2016-05-24T05:17:22.164Z,18.6
2016-05-24T05:18:22.246Z,18.58
2016-05-24T05:19:22.452Z,18.62
2016-05-24T05:20:22.501Z,18.65
2016-05-24T05:21:22.550Z,18.59
2016-05-24T05:22:22.444Z,18.65
2016-05-24T05:23:22.650Z,18.65
2016-05-24T05:24:22.698Z,18.6
2016-05-24T05:25:22.765Z,18.62
2016-05-24T05:26:22.783Z,18.63
2016-05-24T05:27:22.848Z,18.7
2016-05-24T05:28:22.740Z,18.6
2016-05-24T05:29:22.931Z,18.65
2016-05-24T05:30:22.949Z,18.62
2016-05-24T05:31:23.031Z,18.6
2016-05-24T05:32:23.095Z,18.63
2016-05-24T05:33:23.146Z,18.58
2016-05-24T05:34:23.210Z,18.6
2016-05-24T05:35:23.259Z,18.59
2016-05-24T05:36:23.310Z,18.6
2016-05-24T05:37:23.343Z,18.55
2016-05-24T05:38:23.267Z,18.63
2016-05-24T05:39:23.473Z,18.53
2016-05-24T05:40:23.351Z,18.6
2016-05-24T05:41:23.558Z,18.62
2016-05-24T05:42:23.606Z,18.55
2016-05-24T05:43:23.531Z,18.53
2016-05-24T05:44:23.722Z,18.53
2016-05-24T05:45:23.771Z,18.58
2016-05-24T05:46:23.680Z,18.56
2016-05-24T05:47:23.869Z,18.58
2016-05-24T05:48:23.935Z,18.66
2016-05-24T05:49:23.986Z,18.59
2016-05-24T05:50:24.019Z,18.52
2016-05-24T05:51:24.053Z,18.53
2016-05-24T05:52:24.133Z,18.5
2016-05-24T05:53:24.183Z,18.56
2016-05-24T05:54:24.201Z,18.55
2016-05-24T05:55:24.126Z,18.52
2016-05-24T05:56:24.332Z,18.52
2016-05-24T05:57:24.351Z,18.53
2016-05-24T05:58:24.431Z,18.58
2016-05-24T05:59:24.481Z,18.5
2016-05-24T06:00:24.374Z,18.49
2016-05-24T06:01:24.579Z,18.52
2016-05-24T06:02:24.629Z,18.52
2016-05-24T06:03:24.678Z,18.5
2016-05-24T06:04:24.745Z,18.55
2016-05-24T06:05:24.637Z,18.56
2016-05-24T06:06:24.828Z,18.56
2016-05-24T06:07:24.877Z,18.55
2016-05-24T06:08:24.926Z,18.56
2016-05-24T06:09:24.991Z,18.56
2016-05-24T06:10:24.900Z,18.55
2016-05-24T06:11:25.092Z,18.53
2016-05-24T06:12:25.156Z,18.56
2016-05-24T06:13:25.064Z,18.52
2016-05-24T06:14:26.334Z,18.53
2016-05-24T06:15:25.133Z,18.52
2016-05-24T06:16:25.291Z,18.52
2016-05-24T06:17:25.419Z,18.53
2016-05-24T06:18:25.438Z,18.5
2016-05-24T06:19:25.347Z,18.52
2016-05-24T06:20:25.553Z,18.53
2016-05-24T06:21:25.586Z,18.52
2016-05-24T06:22:25.636Z,18.53
2016-05-24T06:23:25.701Z,18.52
2016-05-24T06:24:25.751Z,18.5
2016-05-24T06:25:25.801Z,18.58
2016-05-24T06:26:25.694Z,18.53
2016-05-24T06:27:25.899Z,18.55
2016-05-24T06:28:25.949Z,18.5
2016-05-24T06:29:25.858Z,18.52
2016-05-24T06:30:26.251Z,18.52
2016-05-24T06:31:26.098Z,18.52
2016-05-24T06:32:26.148Z,18.55
2016-05-24T06:33:26.198Z,18.49
2016-05-24T06:34:26.246Z,18.47
2016-05-24T06:35:26.312Z,18.55
2016-05-24T06:36:26.346Z,18.53
2016-05-24T06:37:26.411Z,18.52
2016-05-24T06:38:26.461Z,18.5
2016-05-24T06:39:26.495Z,18.52
2016-05-24T06:40:26.560Z,18.49
2016-05-24T06:41:26.453Z,18.47
2016-05-24T06:42:26.658Z,18.45
2016-05-24T06:43:26.536Z,18.45
2016-05-24T06:44:26.617Z,18.49
2016-05-24T06:45:27.183Z,18.52
2016-05-24T06:46:26.873Z,18.52
2016-05-24T06:47:26.906Z,18.52
2016-05-24T06:48:26.988Z,18.44
2016-05-24T06:49:27.022Z,18.4
2016-05-24T06:50:27.087Z,18.47
2016-05-24T06:51:27.121Z,18.53
2016-05-24T06:52:27.186Z,18.4
2016-05-24T06:53:27.235Z,18.52
2016-05-24T06:54:27.347Z,18.37
2016-05-24T06:55:27.382Z,18.5
2016-05-24T06:56:27.384Z,18.5
2016-05-24T06:57:27.433Z,18.43
2016-05-24T06:58:27.749Z,18.5
2016-05-24T06:59:27.533Z,18.5
2016-05-24T07:00:27.802Z,18.49
2016-05-24T07:01:27.632Z,18.55
2016-05-24T07:02:27.697Z,18.52
2016-05-24T07:03:27.731Z,18.56
2016-05-24T07:04:27.781Z,18.47
2016-05-24T07:05:27.830Z,18.41
2016-05-24T07:06:27.723Z,18.55
2016-05-24T07:07:27.914Z,18.44
2016-05-24T07:08:27.838Z,18.47
2016-05-24T07:09:28.029Z,18.4
2016-05-24T07:10:27.937Z,18.43
2016-05-24T07:11:27.987Z,18.49
2016-05-24T07:12:28.037Z,18.5
2016-05-24T07:13:28.102Z,18.4
2016-05-24T07:14:28.276Z,18.38
2016-05-24T07:15:28.341Z,18.4
2016-05-24T07:16:28.406Z,18.38
2016-05-24T07:17:28.456Z,18.41
2016-05-24T07:18:28.474Z,18.38
2016-05-24T07:19:28.539Z,18.5
2016-05-24T07:20:28.449Z,18.45
2016-05-24T07:21:28.514Z,18.45
2016-05-24T07:22:28.719Z,18.44
2016-05-24T07:23:28.753Z,18.45
2016-05-24T07:24:28.663Z,18.44
2016-05-24T07:25:28.713Z,18.38
2016-05-24T07:26:28.918Z,18.4
2016-05-24T07:27:28.936Z,18.34
2016-05-24T07:28:29.002Z,18.41
2016-05-24T07:29:28.723Z,18.35
2016-05-24T07:30:29.179Z,18.38
2016-05-24T07:31:29.149Z,18.38
2016-05-24T07:32:29.215Z,18.45
2016-05-24T07:33:29.343Z,18.43
2016-05-24T07:34:29.299Z,18.37
2016-05-24T07:35:29.364Z,18.43
2016-05-24T07:36:29.242Z,18.44
2016-05-24T07:37:29.526Z,18.37
2016-05-24T07:38:29.529Z,18.38
2016-05-24T07:39:29.578Z,18.4
2016-05-24T07:40:29.456Z,18.41
2016-05-24T07:41:29.505Z,18.41
2016-05-24T07:42:29.773Z,18.41
2016-05-24T07:43:29.761Z,18.37
2016-05-24T07:44:29.653Z,18.43
2016-05-24T07:45:30.235Z,18.38
2016-05-24T07:46:29.894Z,18.43
2016-05-24T07:47:29.974Z,18.37
2016-05-24T07:48:30.103Z,18.35
2016-05-24T07:49:30.152Z,18.38
2016-05-24T07:50:30.201Z,18.44
2016-05-24T07:51:30.095Z,18.43
2016-05-24T07:52:30.081Z,18.45
2016-05-24T07:53:30.100Z,18.45
2016-05-24T07:54:30.336Z,18.45
2016-05-24T07:55:30.371Z,18.4
2016-05-24T07:56:30.421Z,18.35
2016-05-24T07:57:30.486Z,18.41
2016-05-24T07:58:30.519Z,18.44
2016-05-24T07:59:30.569Z,18.41
2016-05-24T08:00:30.712Z,18.43
2016-05-24T08:01:30.668Z,18.45
2016-05-24T08:02:30.702Z,18.44
2016-05-24T08:03:30.611Z,18.38
2016-05-24T08:04:30.943Z,18.4
2016-05-24T08:05:30.710Z,18.35
2016-05-24T08:06:30.916Z,18.41
2016-05-24T08:07:31.059Z,18.35
2016-05-24T08:08:30.890Z,18.4
2016-05-24T08:09:31.081Z,18.41
2016-05-24T08:10:31.130Z,18.4
2016-05-24T08:11:31.320Z,18.44
2016-05-24T08:12:31.229Z,18.4
2016-05-24T08:13:31.295Z,18.4
2016-05-24T08:14:31.422Z,18.43
2016-05-24T08:15:31.065Z,18.38
2016-05-24T08:16:31.443Z,18.44
2016-05-24T08:17:31.493Z,18.41
2016-05-24T08:18:31.542Z,18.4
2016-05-24T08:19:31.607Z,18.41
2016-05-24T08:20:31.750Z,18.4
2016-05-24T08:21:31.739Z,18.38
2016-05-24T08:22:31.787Z,18.38
2016-05-24T08:23:31.884Z,18.35
2016-05-24T08:24:31.840Z,18.38
2016-05-24T08:25:31.749Z,18.38
2016-05-24T08:26:31.954Z,18.45
2016-05-24T08:27:32.082Z,18.41
2016-05-24T08:28:32.132Z,18.4
2016-05-24T08:29:32.088Z,18.38
2016-05-24T08:30:34.215Z,18.41
2016-05-24T08:31:32.202Z,18.43
2016-05-24T08:32:32.283Z,18.41
2016-05-24T08:33:32.004Z,18.41
2016-05-24T08:34:32.194Z,18.38
2016-05-24T08:35:32.401Z,18.38
2016-05-24T08:36:32.466Z,18.41
2016-05-24T08:37:32.515Z,18.38
2016-05-24T08:38:32.534Z,18.38
2016-05-24T08:39:32.676Z,18.37
2016-05-24T08:40:33.617Z,18.34
2016-05-24T08:41:32.870Z,18.37
2016-05-24T08:42:32.779Z,18.29
2016-05-24T08:43:32.829Z,18.37
2016-05-24T08:44:32.862Z,18.35
2016-05-24T08:45:33.178Z,18.4
2016-05-24T08:46:32.961Z,18.35
2016-05-24T08:47:33.151Z,18.35
2016-05-24T08:48:33.075Z,18.34
2016-05-24T08:49:32.984Z,18.31
2016-05-24T08:50:33.145Z,18.34
2016-05-24T08:51:33.225Z,18.33
2016-05-24T08:52:33.289Z,18.35
2016-05-24T08:53:33.386Z,18.28
2016-05-24T08:54:33.420Z,18.33
2016-05-24T08:55:33.266Z,18.35
2016-05-24T08:56:33.489Z,18.38
2016-05-24T08:57:33.366Z,18.33
2016-05-24T08:58:33.603Z,18.31
2016-05-24T08:59:33.636Z,18.34
2016-05-24T09:00:33.796Z,18.38
2016-05-24T09:01:33.736Z,18.34
2016-05-24T09:02:33.613Z,18.35
2016-05-24T09:03:33.820Z,18.35
2016-05-24T09:04:33.713Z,18.34
2016-05-24T09:05:34.027Z,18.37
2016-05-24T09:06:33.827Z,18.37
2016-05-24T09:07:34.033Z,18.34
2016-05-24T09:08:33.927Z,18.25
2016-05-24T09:09:34.132Z,18.37
2016-05-24T09:10:34.182Z,18.34
2016-05-24T09:11:34.279Z,18.29
2016-05-24T09:12:34.141Z,18.35
2016-05-24T09:13:34.315Z,18.38
2016-05-24T09:14:34.474Z,18.33
2016-05-24T09:15:34.790Z,18.33
2016-05-24T09:16:34.589Z,18.34
2016-05-24T09:17:34.389Z,18.29
2016-05-24T09:18:34.641Z,18.35
2016-05-24T09:19:34.628Z,18.37
2016-05-24T09:20:34.693Z,18.31
2016-05-24T09:21:34.571Z,18.37
2016-05-24T09:22:34.917Z,18.37
2016-05-24T09:23:34.858Z,18.33
2016-05-24T09:24:34.876Z,18.33
2016-05-24T09:25:34.942Z,18.29
2016-05-24T09:26:35.053Z,18.35
2016-05-24T09:27:35.024Z,18.35
2016-05-24T09:28:35.169Z,18.33
2016-05-24T09:29:35.139Z,18.34
2016-05-24T09:30:35.205Z,18.37
2016-05-24T09:31:35.145Z,18.4
2016-05-24T09:32:35.397Z,18.28
2016-05-24T09:33:35.338Z,18.33
2016-05-24T09:34:35.419Z,18.35
2016-05-24T09:35:35.515Z,18.31
2016-05-24T09:36:35.579Z,18.33
2016-05-24T09:37:35.552Z,18.28
2016-05-24T09:38:35.679Z,18.37
2016-05-24T09:39:35.807Z,18.25
2016-05-24T09:40:35.544Z,18.28
2016-05-24T09:41:35.749Z,18.2
2016-05-24T09:42:35.799Z,18.31
2016-05-24T09:43:35.912Z,18.37
2016-05-24T09:44:35.898Z,18.28
2016-05-24T09:45:35.870Z,18.26
2016-05-24T09:46:36.106Z,18.35
2016-05-24T09:47:36.063Z,18.26
2016-05-24T09:48:36.113Z,18.29
2016-05-24T09:49:36.161Z,18.25
2016-05-24T09:50:36.071Z,18.26
2016-05-24T09:51:36.261Z,18.26
2016-05-24T09:52:36.326Z,18.25
2016-05-24T09:53:36.204Z,18.31
2016-05-24T09:54:36.409Z,18.25
2016-05-24T09:55:37.366Z,18.29
2016-05-24T09:56:36.494Z,18.28
2016-05-24T09:57:36.542Z,18.26
2016-05-24T09:58:36.467Z,18.28
2016-05-24T09:59:36.658Z,18.26
2016-05-24T10:00:37.192Z,18.31
2016-05-24T10:01:36.803Z,18.28
2016-05-24T10:02:36.666Z,18.25
2016-05-24T10:03:36.700Z,18.26
2016-05-24T10:04:36.905Z,18.28
2016-05-24T10:05:36.923Z,18.25
2016-05-24T10:06:40.049Z,18.26
2016-05-24T10:07:37.090Z,18.26
2016-05-24T10:08:37.145Z,18.31
2016-05-24T10:09:37.076Z,18.28
2016-05-24T10:10:37.304Z,18.23
2016-05-24T10:11:37.429Z,18.28
2016-05-24T10:12:37.424Z,18.22
2016-05-24T10:13:37.498Z,18.18
2016-05-24T10:14:37.539Z,18.23
2016-05-24T10:15:37.910Z,18.22
2016-05-24T10:16:37.667Z,18.19
2016-05-24T10:17:37.720Z,18.19
2016-05-24T10:18:37.741Z,18.22
2016-05-24T10:19:37.808Z,18.11
2016-05-24T10:20:37.861Z,18.11
2016-05-24T10:21:39.943Z,18.11
2016-05-24T10:22:37.979Z,18.2
2016-05-24T10:23:38.045Z,18.23
2016-05-24T10:24:38.173Z,18.2
2016-05-24T10:25:38.240Z,18.08
2016-05-24T10:26:41.056Z,18.2
2016-05-24T10:27:38.231Z,18.19
2016-05-24T10:28:38.281Z,18.07
2016-05-24T10:29:38.331Z,18.22
2016-05-24T10:30:39.099Z,18.19
2016-05-24T10:31:38.430Z,18.18
2016-05-24T10:32:38.480Z,18.11
2016-05-24T10:33:38.545Z,18.13
2016-05-24T10:34:38.704Z,18.11
2016-05-24T10:35:38.472Z,18.16
2016-05-24T10:36:38.725Z,18.1
2016-05-24T10:37:38.837Z,18.15
2016-05-24T10:38:38.871Z,18.11
2016-05-24T10:39:38.826Z,18.1
2016-05-24T10:40:38.892Z,18.1
2016-05-24T10:41:38.989Z,18.11
2016-05-24T10:42:38.991Z,18.07
2016-05-24T10:43:38.916Z,18.13
2016-05-24T10:44:39.090Z,18.16
2016-05-24T10:45:38.967Z,18.19
2016-05-24T10:46:39.205Z,18.05
2016-05-24T10:47:39.255Z,18.15
2016-05-24T10:48:39.320Z,18.15
2016-05-24T10:49:39.353Z,18.11
2016-05-24T10:50:39.388Z,18.19
2016-05-24T10:51:39.438Z,18.04
2016-05-24T10:52:39.346Z,18.15
2016-05-24T10:53:39.536Z,18
2016-05-24T10:54:39.601Z,18.04
2016-05-24T10:55:39.744Z,18.07
2016-05-24T10:56:39.529Z,18.03
2016-05-24T10:57:39.750Z,18.03
2016-05-24T10:58:39.643Z,18.1
2016-05-24T10:59:39.865Z,18.03
2016-05-24T11:00:40.304Z,18.05
2016-05-24T11:01:39.980Z,18.07
2016-05-24T11:02:39.873Z,18.04
2016-05-24T11:03:40.063Z,18.01
2016-05-24T11:04:40.160Z,18.03
2016-05-24T11:05:40.146Z,18.01
2016-05-24T11:06:40.243Z,18
2016-05-24T11:07:40.356Z,18.03
2016-05-24T11:08:40.154Z,18.04
2016-05-24T11:09:40.189Z,18.1
2016-05-24T11:10:40.457Z,18.08
2016-05-24T11:11:40.459Z,18.13
2016-05-24T11:12:40.525Z,18.05
2016-05-24T11:13:40.574Z,18.03
2016-05-24T11:14:40.468Z,18.05
2016-05-24T11:15:41.158Z,18.07
2016-05-24T11:16:40.660Z,18.07
2016-05-24T11:17:40.758Z,18.08
2016-05-24T11:18:40.838Z,18.1
2016-05-24T11:19:40.856Z,18.13
2016-05-24T11:20:40.906Z,18.05
2016-05-24T11:21:40.955Z,18.1
2016-05-24T11:22:40.849Z,18.07
2016-05-24T11:23:41.070Z,18.04
2016-05-24T11:24:40.963Z,18.16
2016-05-24T11:25:41.154Z,18.07
2016-05-24T11:26:41.203Z,18.07
2016-05-24T11:27:41.362Z,18.05
2016-05-24T11:28:41.349Z,18.1
2016-05-24T11:29:41.368Z,18.08
2016-05-24T11:30:41.464Z,18.05
2016-05-24T11:31:41.466Z,18.11
2016-05-24T11:32:41.516Z,18.08
2016-05-24T11:33:41.566Z,18.07
2016-05-24T11:34:41.694Z,18.11
2016-05-24T11:35:41.743Z,18.1
2016-05-24T11:36:41.573Z,18.11
2016-05-24T11:37:41.764Z,18.1
2016-05-24T11:38:41.892Z,18.11
2016-05-24T11:39:41.879Z,18.07
2016-05-24T11:40:41.912Z,18.1
2016-05-24T11:41:41.978Z,18.1
2016-05-24T11:42:42.059Z,18.07
2016-05-24T11:43:41.920Z,18.05
2016-05-24T11:44:41.814Z,18.11
2016-05-24T11:45:42.019Z,18.07
2016-05-24T11:46:42.241Z,18.07
2016-05-24T11:47:42.275Z,18.1
2016-05-24T11:48:42.325Z,18.08
2016-05-24T11:49:42.375Z,18.04
2016-05-24T11:50:42.268Z,18.03
2016-05-24T11:51:42.488Z,18.08
2016-05-24T11:52:42.352Z,18.07
2016-05-24T11:53:42.651Z,18.04
2016-05-24T11:54:42.622Z,18.11
2016-05-24T11:55:42.531Z,18.1
2016-05-24T11:56:42.721Z,18.13
2016-05-24T11:57:42.786Z,18.1
2016-05-24T11:58:42.821Z,18.01
2016-05-24T11:59:42.870Z,18.03
2016-05-24T12:00:42.779Z,17.97
2016-05-24T12:01:42.969Z,17.98
2016-05-24T12:02:43.081Z,17.97
2016-05-24T12:03:43.068Z,18.01
2016-05-24T12:04:43.134Z,17.97
2016-05-24T12:05:43.168Z,18.05
2016-05-24T12:06:43.232Z,18.03
2016-05-24T12:07:43.392Z,18.01
2016-05-24T12:08:43.270Z,18.07
2016-05-24T12:09:43.366Z,17.98
2016-05-24T12:10:43.415Z,18
2016-05-24T12:11:43.324Z,18.01
2016-05-24T12:12:43.545Z,17.95
2016-05-24T12:13:43.579Z,17.97
2016-05-24T12:14:43.629Z,18
2016-05-24T12:15:43.538Z,17.92
2016-05-24T12:16:43.728Z,18.01
2016-05-24T12:17:43.794Z,17.95
2016-05-24T12:18:43.703Z,17.98
2016-05-24T12:19:44.080Z,17.97
2016-05-24T12:20:43.644Z,18.01
2016-05-24T12:21:43.836Z,18.04
2016-05-24T12:22:44.150Z,18.01
2016-05-24T12:23:43.763Z,18.03
2016-05-24T12:24:44.077Z,18.04
2016-05-24T12:25:44.112Z,17.98
2016-05-24T12:26:44.286Z,18.01
2016-05-24T12:27:44.288Z,18.03
2016-05-24T12:28:44.354Z,17.97
2016-05-24T12:29:44.388Z,17.95
2016-05-24T12:30:44.297Z,17.98
2016-05-24T12:31:44.347Z,17.95
2016-05-24T12:32:44.537Z,17.92
2016-05-24T12:33:44.602Z,18.03
2016-05-24T12:34:44.636Z,17.94
2016-05-24T12:35:44.702Z,17.94
2016-05-24T12:36:44.751Z,18
2016-05-24T12:37:44.785Z,17.94
2016-05-24T12:38:44.834Z,17.89
2016-05-24T12:39:45.024Z,18
2016-05-24T12:40:44.949Z,18
2016-05-24T12:41:45.014Z,17.97
2016-05-24T12:42:45.048Z,18.01
2016-05-24T12:43:45.097Z,18.01
2016-05-24T12:44:45.147Z,17.98
2016-05-24T12:45:45.323Z,17.94
2016-05-24T12:46:45.293Z,17.89
2016-05-24T12:47:45.295Z,17.86
2016-05-24T12:48:45.361Z,17.87
2016-05-24T12:49:46.567Z,17.85
2016-05-24T12:50:45.445Z,17.83
2016-05-24T12:51:45.495Z,17.87
2016-05-24T12:52:45.388Z,17.86
2016-05-24T12:53:45.547Z,17.85
2016-05-24T12:54:45.597Z,17.89
2016-05-24T12:55:45.708Z,17.85
2016-05-24T12:56:45.742Z,17.97